MDT,Max TemperatureF,Mean TemperatureF,Min TemperatureF,Max Dew PointF,MeanDew PointF,Min DewpointF,Max Humidity, Mean Humidity, Min Humidity, Max Sea Level PressureIn, Mean Sea Level PressureIn, Min Sea Level PressureIn, Max VisibilityMiles, Mean VisibilityMiles, Min VisibilityMiles, Max Wind SpeedMPH, Mean Wind SpeedMPH, Max Gust SpeedMPH,PrecipitationIn, CloudCover, Events, WindDirDegrees
2013-3-1,56,39,21,30,25,18,92,64,35,30.55,30.47,30.40,10,10,10,21,7,30,0.00,1,,26
2013-3-2,62,42,22,29,24,20,92,57,21,30.47,30.30,30.10,10,10,10,18,3,25,0.00,0,,187
2013-3-3,60,47,33,38,28,22,69,48,27,30.06,29.89,29.78,10,10,6,23,10,33,0.00,5,Rain,183
2013-3-4,45,40,35,38,33,23,100,77,53,30.21,30.00,29.81,10,10,5,17,8,23,0.12,6,Rain,12
2013-3-5,59,39,19,26,22,16,92,58,23,30.24,30.09,29.91,10,10,10,26,7,35,0.00,0,,190
2013-3-6,59,50,41,29,22,15,53,37,21,29.90,29.81,29.74,10,10,10,33,18,43,0.00,0,,195
2013-3-7,58,44,30,27,21,15,69,45,20,29.86,29.79,29.73,10,10,10,22,9,29,0.00,0,,210
2013-3-8,45,40,35,37,33,23,92,67,41,29.82,29.69,29.61,10,7,2,21,6,28,0.26,7,Rain-Snow-Thunderstorm,221
2013-3-9,36,33,29,31,28,19,100,88,75,30.21,29.88,29.69,10,5,0,17,8,22,0.28,7,Fog-Snow,346
2013-3-10,46,32,18,28,22,15,84,65,45,30.38,30.32,30.25,10,10,10,14,6,18,0.00,0,,14
2013-3-11,56,39,21,28,24,18,88,60,32,30.33,30.24,30.14,10,10,10,16,5,22,0.00,0,,25
2013-3-12,60,43,25,32,28,24,92,63,33,30.27,30.21,30.16,10,10,10,15,3,18,0.00,0,,13
2013-3-13,68,48,27,32,27,20,92,54,16,30.36,30.27,30.20,10,10,10,10,3,15,0.00,0,,74
2013-3-14,75,53,30,32,26,20,82,48,14,30.30,30.19,30.10,10,10,10,15,4,21,0.00,0,,193
2013-3-15,73,54,35,33,26,20,65,40,15,30.10,29.98,29.86,10,10,10,20,6,25,0.00,0,,195
2013-3-16,67,55,42,30,25,19,62,39,16,29.90,29.82,29.73,10,10,10,16,5,21,0.00,1,,69
2013-3-17,62,48,34,23,15,5,48,29,10,29.92,29.81,29.70,10,10,10,28,9,36,0.00,1,,246
2013-3-18,59,43,26,20,14,6,68,41,13,30.05,29.97,29.91,10,10,10,15,5,20,0.00,0,,170
2013-3-19,58,47,35,26,22,16,64,44,24,30.12,30.04,29.94,10,10,10,14,5,18,0.00,3,,28
2013-3-20,60,48,36,29,26,22,70,49,27,30.06,29.89,29.78,10,10,10,26,11,33,0.00,2,,207
2013-3-21,54,43,31,28,23,17,61,44,26,29.85,29.80,29.73,10,10,10,18,6,25,0.00,0,,5
2013-3-22,55,38,20,20,11,-5,74,41,8,29.96,29.82,29.70,10,10,10,23,5,31,0.00,0,,292
2013-3-23,40,26,11,14,5,-1,80,50,20,30.18,30.11,29.97,10,10,10,18,8,24,0.00,1,,13
2013-3-24,50,32,14,10,7,5,73,45,16,30.19,30.12,30.03,10,10,10,14,3,23,0.00,1,,14
2013-3-25,60,40,19,18,14,8,68,43,18,30.14,30.04,29.94,10,10,10,9,1,14,0.00,2,,224
2013-3-26,63,50,36,17,15,9,44,29,13,29.92,29.84,29.78,10,10,10,23,11,31,0.00,0,,203
2013-3-27,66,46,25,23,18,14,63,39,15,29.94,29.89,29.82,10,10,10,21,6,28,0.00,0,,193
2013-3-28,66,50,33,28,25,21,64,41,18,30.01,29.95,29.89,10,10,10,20,8,28,0.00,0,,192
2013-3-29,66,50,33,31,27,24,70,47,23,30.14,30.07,30.01,10,10,10,17,2,31,T,1,,219
2013-3-30,70,52,33,31,27,22,75,47,19,30.13,30.06,30.00,10,10,10,15,5,21,0.00,2,,219
2013-3-31,70,51,32,32,27,23,75,48,21,30.03,29.94,29.82,10,10,10,22,6,31,0.00,1,,193